Overview Statistics Trail Chart Weather Telemetry Raw packets
 

This is the latest recevied weather packets stored in our database for station/object KA6AKH-WX. If no packets are shown the sender has not sent any weather packets the latest 10 day(s).

<< 7 8 9 10 11 12 13 >>
Time Temp. Humidity Pressure Rain* Wind** Luminosity Snow
1788272520 30° C 64% 1016.9 hPa 0 mm - - -
1788271920 29.44° C 66% 1016.9 hPa 0 mm - - -
1788271320 28.89° C 68% 1016.9 hPa 0 mm - - -
1788270720 28.33° C 72% 1016.9 hPa 0 mm - - -
1788270120 28.33° C 73% 1016.8 hPa 0 mm - - -
1788269520 27.78° C 76% 1016.9 hPa 0 mm - - -
1788268920 27.22° C 77% 1017 hPa 0 mm - - -
1788268290 27.22° C 78% 1017 hPa 0 mm - - -
1788267690 26.67° C 80% 1017.3 hPa 0 mm - - -
1788267091 26.67° C 80% 1017.3 hPa 0 mm - - -
1788266490 26.67° C 81% 1017.3 hPa 0 mm - - -
1788265290 26.67° C 82% 1017.4 hPa 0 mm - - -
1788264661 26.11° C 82% 1017.3 hPa 0 mm - - -
1788264031 26.11° C 83% 1017.3 hPa 0 mm - - -
1788263400 25.56° C 84% 1017 hPa 0 mm - - -
1788262800 25.56° C 86% 1016.8 hPa 0 mm - - -
1788262170 25° C 89% 1016.6 hPa 0 mm - - -
1788261540 25° C 90% 1016.7 hPa 0 mm - - -
1788259682 24.44° C 91% 1016.7 hPa 0 mm - - -
1788259080 24.44° C 91% 1016.6 hPa 0 mm - - -
1788258480 24.44° C 91% 1016.5 hPa 0 mm - - -
1788257851 24.44° C 91% 1016.4 hPa 0 mm - - -
1788257251 24.44° C 90% 1016.4 hPa 0 mm - - -
1788256620 24.44° C 90% 1016.4 hPa 0 mm - - -
1788256019 25° C 90% 1016.4 hPa 0 mm - - -

* Rain latest hour (hover to see other rain measurements)
** Current wind speed in m/s (hover to see current wind gust speed)